Time;durP1;ratioP1;P1;durP2;ratioP2;P2;SDS_P1;SDS_P2;PMS_P1;PMS_P2;Temp;Humidity;BMP_temperature;BMP_pressure;BME280_temperature;BME280_humidity;BME280_pressure;Samples;Min_cycle;Max_cycle;Signal;HPM_P1;HPM_P2
2022/09/15 00:01:16;;;;;;;43.83;26.63;;;13.50;99.90;;;;;;6310159;22;20412;-64
2022/09/15 00:03:44;;;;;;;44.43;25.30;;;13.50;99.90;;;;;;6310584;22;20399;-64
2022/09/15 00:06:14;;;;;;;44.43;25.63;;;13.60;99.90;;;;;;6310225;22;20498;-64
2022/09/15 00:08:42;;;;;;;44.13;26.47;;;13.60;99.90;;;;;;6309392;22;20455;-64
2022/09/15 00:11:12;;;;;;;42.57;25.67;;;13.60;99.90;;;;;;6310472;22;20523;-64
2022/09/15 00:13:42;;;;;;;42.57;25.37;;;13.60;99.90;;;;;;6310588;22;20412;-64
2022/09/15 00:16:10;;;;;;;38.10;23.23;;;13.60;99.90;;;;;;6309463;22;20417;-64
2022/09/15 00:18:38;;;;;;;37.23;24.20;;;13.50;99.90;;;;;;6310190;22;20507;-64
2022/09/15 00:21:08;;;;;;;38.73;24.53;;;13.40;99.90;;;;;;6310535;22;20660;-64
2022/09/15 00:23:38;;;;;;;47.00;24.20;;;13.30;99.90;;;;;;6310376;22;20768;-64
2022/09/15 00:26:08;;;;;;;42.97;24.70;;;13.20;99.90;;;;;;6310139;22;20863;-64
2022/09/15 00:28:36;;;;;;;34.93;23.07;;;13.10;99.90;;;;;;6310510;22;20487;-64
2022/09/15 00:31:06;;;;;;;48.43;24.83;;;13.10;99.90;;;;;;6310840;22;20490;-64
2022/09/15 00:33:33;;;;;;;40.30;23.23;;;13.00;99.90;;;;;;6310496;22;20511;-64
2022/09/15 00:36:05;;;;;;;38.23;22.27;;;12.90;99.90;;;;;;6309468;22;20446;-64
2022/09/15 00:38:33;;;;;;;37.07;22.33;;;12.80;99.90;;;;;;6310300;22;20391;-63
2022/09/15 00:41:03;;;;;;;39.73;23.80;;;12.80;99.90;;;;;;6310111;22;20390;-64
2022/09/15 00:43:47;;;;;;;33.53;20.93;;;12.70;99.90;;;;;;6310219;22;20437;-64
2022/09/15 00:46:16;;;;;;;35.30;22.43;;;12.70;99.90;;;;;;6310116;22;20534;-64
2022/09/15 00:48:48;;;;;;;32.83;21.90;;;12.60;99.90;;;;;;6284519;22;20452;-64
2022/09/15 00:51:18;;;;;;;34.43;21.67;;;12.60;99.90;;;;;;6310290;22;20834;-64
2022/09/15 00:53:49;;;;;;;32.23;20.80;;;12.60;99.90;;;;;;6309935;22;20519;-64
2022/09/15 00:56:19;;;;;;;36.93;21.77;;;12.60;99.90;;;;;;6310140;22;20434;-63
2022/09/15 00:58:54;;;;;;;33.70;23.07;;;12.50;99.90;;;;;;6309770;22;20490;-64
2022/09/15 01:01:25;;;;;;;32.23;21.20;;;12.60;99.90;;;;;;6310500;22;20458;-64
2022/09/15 01:03:54;;;;;;;30.23;21.87;;;12.50;99.90;;;;;;6310440;22;20478;-63
2022/09/15 01:06:26;;;;;;;32.47;20.53;;;12.40;99.90;;;;;;6310220;22;20414;-63
2022/09/15 01:08:58;;;;;;;35.37;22.77;;;12.40;99.90;;;;;;6310152;22;20448;-64
2022/09/15 01:11:30;;;;;;;29.77;20.20;;;12.40;99.90;;;;;;6309479;22;20416;-63
2022/09/15 01:13:57;;;;;;;29.33;19.60;;;12.30;99.90;;;;;;6308989;22;20515;-63
2022/09/15 01:20:16;;;;;;;32.83;20.20;;;12.50;99.90;;;;;;6282725;22;20681;-63
2022/09/15 01:22:59;;;;;;;35.50;21.80;;;12.50;99.90;;;;;;6310246;22;20865;-63
2022/09/15 01:25:45;;;;;;;35.50;19.93;;;12.50;99.90;;;;;;6309956;22;20391;-63
2022/09/15 01:28:36;;;;;;;32.03;20.97;;;12.40;99.90;;;;;;6309579;22;20422;-63
2022/09/15 01:31:12;;;;;;;39.83;25.00;;;12.40;99.90;;;;;;6309969;22;20424;-63
2022/09/15 01:33:45;;;;;;;39.70;23.03;;;12.40;99.90;;;;;;6309876;22;20386;-63
2022/09/15 01:36:19;;;;;;;37.20;21.83;;;12.40;99.90;;;;;;6309450;22;20476;-63
2022/09/15 01:39:00;;;;;;;33.37;20.90;;;12.30;99.90;;;;;;6309908;22;20412;-63
2022/09/15 01:41:34;;;;;;;35.07;21.97;;;12.30;99.90;;;;;;6309052;22;20480;-63
2022/09/15 01:44:11;;;;;;;34.83;22.33;;;12.30;99.90;;;;;;6309423;22;20519;-63
2022/09/15 01:46:45;;;;;;;36.77;22.13;;;12.20;99.90;;;;;;6309739;22;20387;-63
2022/09/15 01:49:18;;;;;;;34.90;22.10;;;12.20;99.90;;;;;;6309756;22;20419;-63
2022/09/15 01:51:47;;;;;;;29.73;20.90;;;12.10;99.90;;;;;;6309175;22;20395;-63
2022/09/15 01:54:17;;;;;;;29.13;21.63;;;12.10;99.90;;;;;;6309575;22;20826;-63
2022/09/15 01:56:44;;;;;;;36.17;20.10;;;11.90;99.90;;;;;;6309260;22;20417;-63
2022/09/15 01:59:13;;;;;;;34.40;21.20;;;11.90;99.90;;;;;;6309858;22;20386;-63
2022/09/15 02:01:48;;;;;;;34.23;20.27;;;11.90;99.90;;;;;;6309665;22;20697;-63
2022/09/15 02:04:26;;;;;;;35.40;20.57;;;11.80;99.90;;;;;;6309887;22;20395;-63
2022/09/15 02:06:59;;;;;;;33.63;21.27;;;11.80;99.90;;;;;;6309760;22;20407;-63
2022/09/15 02:09:31;;;;;;;34.63;19.47;;;11.70;99.90;;;;;;6309835;22;20458;-63
2022/09/15 02:12:06;;;;;;;34.67;22.33;;;11.80;99.90;;;;;;6308633;22;20423;-63
2022/09/15 02:14:46;;;;;;;30.80;20.27;;;11.80;99.90;;;;;;6310214;22;20873;-63
2022/09/15 02:17:19;;;;;;;30.27;20.10;;;11.80;99.90;;;;;;6308704;22;20724;-62
2022/09/15 02:19:52;;;;;;;27.10;19.77;;;11.70;99.90;;;;;;6309517;22;20412;-62
2022/09/15 02:22:26;;;;;;;31.50;20.37;;;11.60;99.90;;;;;;6309737;22;20869;-63
2022/09/15 02:24:58;;;;;;;33.17;19.07;;;11.60;99.90;;;;;;6310444;22;20907;-62
2022/09/15 02:27:29;;;;;;;34.43;19.57;;;11.60;99.90;;;;;;6310336;22;20416;-62
2022/09/15 02:30:05;;;;;;;28.40;19.93;;;11.60;99.90;;;;;;6310202;22;20448;-62
2022/09/15 02:32:37;;;;;;;27.13;18.30;;;11.60;99.90;;;;;;6310251;22;20416;-62
2022/09/15 02:35:06;;;;;;;33.50;20.23;;;11.60;99.90;;;;;;6310197;22;20416;-62
2022/09/15 02:37:36;;;;;;;30.30;20.13;;;11.50;99.90;;;;;;6279741;22;20394;-62
2022/09/15 02:40:07;;;;;;;26.90;18.47;;;11.40;99.90;;;;;;6279246;22;20384;-63
2022/09/15 02:42:38;;;;;;;36.00;20.40;;;11.40;99.90;;;;;;6278826;22;20417;-63
2022/09/15 02:45:06;;;;;;;32.47;20.67;;;11.40;99.90;;;;;;6279359;22;20417;-63
2022/09/15 02:47:34;;;;;;;28.17;18.27;;;11.50;99.90;;;;;;6278208;22;20388;-63
2022/09/15 02:50:02;;;;;;;27.87;18.53;;;11.40;99.90;;;;;;6279213;22;20746;-63
2022/09/15 02:52:29;;;;;;;30.10;18.17;;;11.40;99.90;;;;;;6277313;22;20392;-62
2022/09/15 02:55:00;;;;;;;27.50;18.97;;;11.40;99.90;;;;;;6279537;22;20392;-62
2022/09/15 02:57:27;;;;;;;38.70;20.10;;;11.40;99.90;;;;;;6279372;22;20735;-63
2022/09/15 03:00:13;;;;;;;31.37;19.30;;;11.40;99.90;;;;;;6279087;22;20802;-63
2022/09/15 03:02:44;;;;;;;35.00;19.80;;;11.40;99.90;;;;;;6279544;22;20401;-63
2022/09/15 03:05:13;;;;;;;32.23;19.90;;;11.40;99.90;;;;;;6281596;22;20841;-63
2022/09/15 03:07:42;;;;;;;31.27;19.03;;;11.50;99.90;;;;;;6280206;22;20695;-63
2022/09/15 03:10:12;;;;;;;28.27;19.80;;;11.50;99.90;;;;;;6279774;22;20423;-63
2022/09/15 03:12:43;;;;;;;31.27;19.40;;;11.60;99.90;;;;;;6279896;22;20400;-63
2022/09/15 03:15:12;;;;;;;54.70;19.80;;;11.60;99.90;;;;;;6280068;22;20425;-63
2022/09/15 03:17:43;;;;;;;26.23;19.60;;;11.50;99.90;;;;;;6280846;22;20523;-63
2022/09/15 03:20:12;;;;;;;26.23;17.23;;;11.50;99.90;;;;;;6280978;22;20712;-63
2022/09/15 03:22:39;;;;;;;35.63;20.50;;;11.50;99.90;;;;;;6280992;22;20419;-63
2022/09/15 03:25:11;;;;;;;29.57;20.87;;;11.50;99.90;;;;;;6280670;22;20416;-63
2022/09/15 03:27:38;;;;;;;61.30;19.77;;;11.50;99.90;;;;;;6280809;22;20457;-64
2022/09/15 03:30:13;;;;;;;59.13;19.47;;;11.40;99.90;;;;;;6280095;22;20933;-63
2022/09/15 03:32:42;;;;;;;51.00;16.93;;;11.30;99.90;;;;;;6278735;22;20417;-63
2022/09/15 03:35:12;;;;;;;95.40;19.20;;;11.30;99.90;;;;;;6278888;22;20406;-63
2022/09/15 03:37:39;;;;;;;29.23;17.10;;;11.40;99.90;;;;;;6310483;22;20395;-63
2022/09/15 03:40:10;;;;;;;21.83;15.97;;;11.50;99.90;;;;;;6310181;22;20759;-63
2022/09/15 03:42:37;;;;;;;25.27;17.67;;;11.40;99.90;;;;;;6310694;22;20424;-63
2022/09/15 03:45:07;;;;;;;26.40;17.57;;;11.50;99.90;;;;;;6311077;22;20391;-63
2022/09/15 03:47:34;;;;;;;27.17;17.80;;;11.50;99.90;;;;;;6312288;22;20416;-63
2022/09/15 03:50:02;;;;;;;26.77;17.10;;;11.60;99.90;;;;;;6311604;22;20543;-63
2022/09/15 03:52:31;;;;;;;25.43;18.83;;;11.60;99.90;;;;;;6311778;22;20478;-63
2022/09/15 03:54:59;;;;;;;23.87;17.30;;;11.60;99.90;;;;;;6311557;22;20477;-63
2022/09/15 03:57:26;;;;;;;27.73;16.80;;;11.60;99.90;;;;;;6311420;22;20788;-63
2022/09/15 03:59:53;;;;;;;23.67;16.90;;;11.60;99.90;;;;;;6311051;22;20830;-63
2022/09/15 04:02:23;;;;;;;22.33;15.60;;;11.70;99.90;;;;;;6311361;22;20391;-64
2022/09/15 04:04:52;;;;;;;23.63;15.77;;;11.70;99.90;;;;;;6311527;22;20503;-63
2022/09/15 04:07:21;;;;;;;23.27;17.17;;;11.70;99.90;;;;;;6311200;22;20423;-63
2022/09/15 04:09:48;;;;;;;22.30;16.37;;;11.80;99.90;;;;;;6310308;22;21001;-63
2022/09/15 04:12:16;;;;;;;23.70;17.70;;;11.80;99.90;;;;;;6311179;22;20416;-63
2022/09/15 04:14:43;;;;;;;27.33;18.37;;;11.80;99.90;;;;;;6311094;22;20415;-63
2022/09/15 04:17:10;;;;;;;25.27;19.30;;;11.90;99.90;;;;;;6310663;22;20416;-63
2022/09/15 04:19:38;;;;;;;28.30;18.07;;;12.00;99.90;;;;;;6311619;22;20402;-63
2022/09/15 04:22:05;;;;;;;28.07;16.97;;;12.00;99.90;;;;;;6311137;22;20398;-63
2022/09/15 04:24:34;;;;;;;26.87;18.13;;;12.00;99.90;;;;;;6311366;22;20420;-63
2022/09/15 04:27:01;;;;;;;22.77;17.50;;;12.10;99.90;;;;;;6311475;22;20470;-63
2022/09/15 04:29:28;;;;;;;25.90;16.97;;;12.10;99.90;;;;;;6311522;22;20475;-63
2022/09/15 04:31:55;;;;;;;25.97;17.47;;;12.20;99.90;;;;;;6311774;22;20423;-63
2022/09/15 04:34:23;;;;;;;26.33;17.50;;;12.20;99.90;;;;;;6311658;22;20417;-63
2022/09/15 04:36:53;;;;;;;26.57;16.70;;;12.20;99.90;;;;;;6310964;22;20422;-63
2022/09/15 04:39:21;;;;;;;27.37;18.50;;;12.30;99.90;;;;;;6311502;22;20826;-63
2022/09/15 04:41:50;;;;;;;28.73;20.07;;;12.30;99.90;;;;;;6311562;22;20416;-63
2022/09/15 04:44:17;;;;;;;26.03;18.40;;;12.30;99.90;;;;;;6311603;22;20416;-63
2022/09/15 04:46:44;;;;;;;25.23;18.77;;;12.30;99.90;;;;;;6311433;22;20710;-63
2022/09/15 04:49:11;;;;;;;29.40;20.00;;;12.40;99.90;;;;;;6310685;22;20426;-63
2022/09/15 04:51:39;;;;;;;29.07;20.03;;;12.40;99.90;;;;;;6309843;22;20451;-63
2022/09/15 04:54:06;;;;;;;30.40;19.73;;;12.50;99.90;;;;;;6309497;22;20519;-63
2022/09/15 04:56:33;;;;;;;31.43;21.13;;;12.50;99.90;;;;;;6309207;22;20427;-63
2022/09/15 04:59:05;;;;;;;32.17;21.93;;;12.50;99.90;;;;;;6308409;22;20831;-63
2022/09/15 05:01:34;;;;;;;29.77;21.13;;;12.50;99.90;;;;;;6310154;22;20440;-63
2022/09/15 05:04:03;;;;;;;30.60;21.90;;;12.50;99.90;;;;;;6310285;22;20593;-63
2022/09/15 05:06:30;;;;;;;32.73;20.80;;;12.60;99.90;;;;;;6311106;22;20723;-63
2022/09/15 05:08:58;;;;;;;34.03;21.97;;;12.60;99.90;;;;;;6310637;22;20436;-63
2022/09/15 05:11:27;;;;;;;31.97;21.67;;;12.60;99.90;;;;;;6310855;22;20701;-63
2022/09/15 05:13:54;;;;;;;30.10;20.57;;;12.70;99.90;;;;;;6309514;22;20431;-63
2022/09/15 05:16:27;;;;;;;28.17;20.93;;;12.70;99.90;;;;;;6308711;22;20418;-63
2022/09/15 05:18:56;;;;;;;31.97;21.83;;;12.70;99.90;;;;;;6309819;22;20436;-63
2022/09/15 05:21:24;;;;;;;38.50;22.63;;;12.80;99.90;;;;;;6309142;22;20426;-63
2022/09/15 05:23:55;;;;;;;31.97;21.27;;;12.80;99.90;;;;;;6310215;22;20905;-63
2022/09/15 05:26:24;;;;;;;33.23;21.90;;;12.80;99.90;;;;;;6309142;22;20417;-63
2022/09/15 05:28:52;;;;;;;31.80;20.70;;;12.80;99.90;;;;;;6308688;22;20412;-63
2022/09/15 05:31:21;;;;;;;30.30;20.30;;;12.90;99.90;;;;;;6309849;22;20481;-63
2022/09/15 05:33:51;;;;;;;30.03;20.23;;;12.90;99.90;;;;;;6309639;22;20413;-63
2022/09/15 05:36:22;;;;;;;29.53;21.80;;;13.00;99.90;;;;;;6309594;22;20406;-63
2022/09/15 05:38:49;;;;;;;37.03;22.23;;;13.00;99.90;;;;;;6309050;22;20394;-63
2022/09/15 05:41:18;;;;;;;28.73;20.23;;;13.00;99.90;;;;;;6308415;22;20419;-63
2022/09/15 05:43:46;;;;;;;29.47;21.63;;;13.00;99.90;;;;;;6308548;22;20391;-63
2022/09/15 05:46:14;;;;;;;27.67;19.87;;;13.10;99.90;;;;;;6307901;22;20422;-63
2022/09/15 05:48:47;;;;;;;27.10;20.20;;;13.20;99.90;;;;;;6306462;22;20699;-63
2022/09/15 05:51:15;;;;;;;34.00;23.00;;;13.20;99.90;;;;;;6309028;22;20413;-63
2022/09/15 05:53:43;;;;;;;28.80;21.27;;;13.20;99.90;;;;;;6308979;22;20482;-63
2022/09/15 05:56:12;;;;;;;33.77;22.37;;;13.20;99.90;;;;;;6309509;22;20386;-63
2022/09/15 05:58:40;;;;;;;31.40;21.63;;;13.30;99.90;;;;;;6309953;22;20719;-63
2022/09/15 06:01:11;;;;;;;29.50;21.43;;;13.30;99.90;;;;;;6310214;22;20408;-64
2022/09/15 06:03:41;;;;;;;28.30;19.87;;;13.40;99.90;;;;;;6310674;22;20498;-63
2022/09/15 06:06:09;;;;;;;28.83;19.80;;;13.40;99.90;;;;;;6310114;22;20416;-63
2022/09/15 06:08:40;;;;;;;27.50;20.07;;;13.50;99.90;;;;;;6310555;22;20679;-64
2022/09/15 06:11:09;;;;;;;25.33;20.10;;;13.60;99.90;;;;;;6309527;22;20542;-63
2022/09/15 06:13:40;;;;;;;26.53;18.23;;;13.60;99.90;;;;;;6310552;22;20420;-64
2022/09/15 06:16:10;;;;;;;25.17;18.60;;;13.60;99.90;;;;;;6309657;22;20397;-64
2022/09/15 06:18:38;;;;;;;25.43;18.47;;;13.60;99.90;;;;;;6308944;22;20399;-64
2022/09/15 06:21:07;;;;;;;23.60;19.23;;;13.60;99.90;;;;;;6308803;22;20673;-64
2022/09/15 06:23:41;;;;;;;21.90;16.30;;;13.70;99.90;;;;;;6309234;22;20391;-63
2022/09/15 06:26:10;;;;;;;23.83;17.83;;;13.80;99.90;;;;;;6308283;22;20456;-64
2022/09/15 06:28:37;;;;;;;25.03;19.33;;;13.90;99.90;;;;;;6306934;22;20424;-64
2022/09/15 06:31:09;;;;;;;24.07;18.07;;;14.00;99.90;;;;;;6308833;22;20429;-64
2022/09/15 06:33:36;;;;;;;23.10;18.27;;;14.10;99.90;;;;;;6309058;22;20420;-64
2022/09/15 06:36:06;;;;;;;23.80;19.53;;;14.10;99.90;;;;;;6308119;22;20414;-64
2022/09/15 06:38:33;;;;;;;24.43;17.67;;;14.00;99.90;;;;;;6308179;22;20419;-64
2022/09/15 06:41:05;;;;;;;21.37;18.37;;;14.00;99.90;;;;;;6311528;22;20452;-64
2022/09/15 06:43:33;;;;;;;23.77;17.83;;;14.20;99.90;;;;;;6311501;22;20412;-64
2022/09/15 06:46:07;;;;;;;19.83;17.73;;;14.30;99.90;;;;;;6311407;22;20416;-64
2022/09/15 06:48:35;;;;;;;24.03;17.40;;;14.30;99.90;;;;;;6310943;22;20393;-64
2022/09/15 06:51:03;;;;;;;20.83;17.93;;;14.40;99.90;;;;;;6311466;22;20423;-64
2022/09/15 06:53:31;;;;;;;23.83;18.40;;;14.50;99.90;;;;;;6310755;22;20416;-64
2022/09/15 06:56:04;;;;;;;20.07;16.93;;;14.50;99.90;;;;;;6310988;22;20854;-64
2022/09/15 06:58:31;;;;;;;21.90;18.20;;;14.50;99.90;;;;;;6310818;22;20834;-64
2022/09/15 07:01:02;;;;;;;20.70;18.50;;;14.60;99.90;;;;;;6311608;22;20658;-64
2022/09/15 07:03:29;;;;;;;20.07;18.17;;;14.60;99.90;;;;;;6311253;22;20784;-64
2022/09/15 07:05:57;;;;;;;21.07;18.10;;;14.50;99.90;;;;;;6310920;22;20655;-64
2022/09/15 07:08:24;;;;;;;21.73;17.53;;;14.60;99.90;;;;;;6309931;22;20399;-64
2022/09/15 07:10:51;;;;;;;23.10;19.73;;;14.60;99.90;;;;;;6310848;22;20714;-64
2022/09/15 07:13:25;;;;;;;27.73;19.93;;;14.60;99.90;;;;;;6311486;22;20387;-64
2022/09/15 07:15:53;;;;;;;25.47;19.67;;;14.60;99.90;;;;;;6310428;22;20391;-64
2022/09/15 07:18:21;;;;;;;22.27;19.90;;;14.80;99.90;;;;;;6310356;22;20423;-64
2022/09/15 07:20:49;;;;;;;21.37;19.17;;;14.90;99.90;;;;;;6311528;22;20490;-64
2022/09/15 07:23:17;;;;;;;23.63;20.73;;;15.00;99.90;;;;;;6310985;22;20423;-64
2022/09/15 07:25:46;;;;;;;21.37;19.27;;;15.10;99.90;;;;;;6309701;22;20442;-64
2022/09/15 07:28:13;;;;;;;27.53;20.63;;;15.00;99.90;;;;;;6310110;22;20683;-64
2022/09/15 07:30:50;;;;;;;19.37;16.80;;;15.10;99.90;;;;;;6310794;22;20483;-64
2022/09/15 07:33:18;;;;;;;19.97;17.97;;;15.00;99.90;;;;;;6310759;22;20420;-64
2022/09/15 07:35:47;;;;;;;18.43;16.27;;;15.00;99.90;;;;;;6310272;22;20538;-64
2022/09/15 07:38:14;;;;;;;18.90;17.00;;;15.00;99.90;;;;;;6310397;22;20417;-64
2022/09/15 07:40:44;;;;;;;24.73;17.27;;;15.10;99.90;;;;;;6310088;22;20850;-65
2022/09/15 07:43:12;;;;;;;16.60;14.90;;;15.10;99.90;;;;;;6311178;22;20478;-65
2022/09/15 07:45:41;;;;;;;17.27;15.57;;;14.90;99.90;;;;;;6310839;22;20712;-65
2022/09/15 07:48:08;;;;;;;18.43;12.80;;;15.00;99.90;;;;;;6310700;22;20857;-65
2022/09/15 07:50:42;;;;;;;14.43;12.10;;;14.90;99.90;;;;;;6310274;22;20444;-65
2022/09/15 07:53:12;;;;;;;15.30;11.43;;;14.90;99.90;;;;;;6310091;22;20399;-65
2022/09/15 07:55:39;;;;;;;16.63;13.40;;;14.90;99.90;;;;;;6309787;22;20390;-65
2022/09/15 07:58:07;;;;;;;16.30;12.17;;;14.90;99.90;;;;;;6310167;22;20499;-65
2022/09/15 08:00:34;;;;;;;16.33;11.70;;;14.80;99.90;;;;;;6309905;22;20865;-65
2022/09/15 08:03:05;;;;;;;12.77;11.47;;;14.90;99.90;;;;;;6309796;22;20468;-65
2022/09/15 08:05:32;;;;;;;12.47;11.23;;;15.10;99.90;;;;;;6309860;22;20398;-65
2022/09/15 08:07:59;;;;;;;16.93;12.70;;;15.30;99.90;;;;;;6310147;22;20416;-66
2022/09/15 08:10:26;;;;;;;13.30;11.40;;;15.60;99.90;;;;;;6309603;22;20539;-66
2022/09/15 08:12:55;;;;;;;11.80;10.50;;;15.90;99.90;;;;;;6309719;22;20390;-65
2022/09/15 08:15:24;;;;;;;12.43;9.70;;;15.90;99.90;;;;;;6310252;22;20417;-66
2022/09/15 08:17:51;;;;;;;10.90;8.83;;;15.80;99.90;;;;;;6309779;22;20463;-66
2022/09/15 08:20:20;;;;;;;10.97;9.23;;;15.90;99.90;;;;;;6309927;22;20466;-66
2022/09/15 08:22:48;;;;;;;9.90;8.50;;;16.00;1.10;;;;;;6308767;22;20425;-66
2022/09/15 08:25:15;;;;;;;13.77;8.77;;;15.90;99.90;;;;;;6309220;22;20540;-66
2022/09/15 08:27:42;;;;;;;8.30;7.20;;;16.00;99.90;;;;;;6306298;22;20420;-66
2022/09/15 08:30:11;;;;;;;7.63;6.90;;;16.00;99.90;;;;;;6308846;22;20900;-66
2022/09/15 08:32:39;;;;;;;10.33;7.43;;;16.10;99.90;;;;;;6308855;22;20462;-67
2022/09/15 08:35:09;;;;;;;13.90;7.40;;;16.20;99.90;;;;;;6308251;22;20412;-66
2022/09/15 08:37:38;;;;;;;12.60;7.50;;;16.40;99.90;;;;;;6309927;22;20412;-66
2022/09/15 08:40:09;;;;;;;8.90;6.20;;;16.30;41.40;;;;;;6309101;22;20413;-66
2022/09/15 08:42:37;;;;;;;7.33;5.20;;;16.40;1.00;;;;;;6308035;22;20417;-67
2022/09/15 08:45:17;;;;;;;6.80;5.30;;;16.50;1.00;;;;;;6306927;22;20429;-67
2022/09/15 08:47:48;;;;;;;6.43;4.63;;;16.20;1.00;;;;;;6308222;22;20416;-67
2022/09/15 08:50:27;;;;;;;6.07;4.90;;;16.20;1.00;;;;;;6309330;22;20444;-67
2022/09/15 08:53:01;;;;;;;6.93;4.63;;;16.40;1.00;;;;;;6309731;22;20493;-67
2022/09/15 08:55:39;;;;;;;6.37;4.50;;;16.30;1.00;;;;;;6310459;22;20510;-67
2022/09/15 08:58:10;;;;;;;6.00;4.80;;;16.50;1.00;;;;;;6309956;22;20501;-68
2022/09/15 09:00:40;;;;;;;5.63;4.83;;;16.70;1.00;;;;;;6310113;22;20887;-67
2022/09/15 09:03:28;;;;;;;6.63;4.40;;;16.70;1.00;;;;;;6309488;22;20397;-67
2022/09/15 09:06:02;;;;;;;11.07;4.03;;;17.00;1.00;;;;;;6309408;22;20423;-67
2022/09/15 09:09:04;;;;;;;6.00;4.20;;;17.40;1.00;;;;;;6309656;22;20416;-67
2022/09/15 09:11:49;;;;;;;6.57;4.63;;;17.50;99.90;;;;;;6310646;22;20490;-67
2022/09/15 09:14:23;;;;;;;12.03;4.40;;;17.70;99.90;;;;;;6309392;22;20912;-67
2022/09/15 09:17:10;;;;;;;7.00;5.43;;;18.00;99.90;;;;;;6309758;22;20416;-67
2022/09/15 09:19:59;;;;;;;7.60;5.50;;;17.60;99.90;;;;;;6308968;22;20805;-67
2022/09/15 09:22:31;;;;;;;11.97;5.60;;;17.90;99.90;;;;;;6308128;22;20489;-67
2022/09/15 09:25:02;;;;;;;5.77;5.00;;;18.20;99.90;;;;;;6307961;22;20475;-67
2022/09/15 09:27:32;;;;;;;8.70;3.80;;;18.40;99.90;;;;;;6309551;22;20458;-67
2022/09/15 09:30:03;;;;;;;7.93;4.10;;;18.70;99.90;;;;;;6306405;22;20424;-67
2022/09/15 09:32:40;;;;;;;5.53;3.10;;;17.90;99.90;;;;;;6307503;22;20845;-67
2022/09/15 09:35:18;;;;;;;5.27;2.90;;;17.80;99.90;;;;;;6306567;22;20422;-68
2022/09/15 09:37:49;;;;;;;6.10;4.00;;;18.10;99.90;;;;;;6308353;22;20415;-68
2022/09/15 09:40:19;;;;;;;6.93;3.27;;;17.90;99.90;;;;;;6307223;22;20789;-68
2022/09/15 09:42:47;;;;;;;6.27;3.53;;;17.90;99.90;;;;;;6307974;22;20456;-67
2022/09/15 09:45:17;;;;;;;7.93;3.70;;;18.00;99.90;;;;;;6308798;22;20418;-67
2022/09/15 09:47:50;;;;;;;4.97;3.33;;;18.30;99.90;;;;;;6307743;22;20427;-67
2022/09/15 09:50:38;;;;;;;6.37;3.90;;;18.60;99.90;;;;;;6307910;22;20772;-67
2022/09/15 09:53:35;;;;;;;7.80;3.17;;;18.20;99.90;;;;;;6308662;22;20412;-67
2022/09/15 09:56:24;;;;;;;8.30;3.70;;;18.10;99.90;;;;;;6256386;22;20428;-67
2022/09/15 09:58:52;;;;;;;5.43;3.67;;;18.40;99.90;;;;;;6308711;22;20418;-67
2022/09/15 10:01:21;;;;;;;7.60;3.60;;;18.80;99.90;;;;;;6309337;22;20436;-67
2022/09/15 10:03:48;;;;;;;8.30;3.87;;;18.60;99.90;;;;;;6307596;22;20503;-68
2022/09/15 10:06:23;;;;;;;6.60;3.50;;;18.80;99.90;;;;;;6308239;22;20420;-67
2022/09/15 10:08:56;;;;;;;5.23;4.27;;;18.50;99.90;;;;;;6308632;22;20418;-67
2022/09/15 10:11:40;;;;;;;4.90;3.20;;;18.60;99.90;;;;;;6309533;22;20448;-68
2022/09/15 10:14:18;;;;;;;7.37;3.20;;;18.10;99.90;;;;;;6309821;22;20422;-67
2022/09/15 10:17:00;;;;;;;6.40;3.57;;;17.70;99.90;;;;;;6311272;22;20459;-67
2022/09/15 10:19:29;;;;;;;8.13;3.57;;;17.80;99.90;;;;;;6311047;22;20416;-67
2022/09/15 10:22:02;;;;;;;6.80;3.80;;;18.10;99.90;;;;;;6310253;22;20416;-67
2022/09/15 10:24:39;;;;;;;5.77;3.70;;;17.80;99.90;;;;;;6310621;22;20459;-67
2022/09/15 10:27:17;;;;;;;4.90;3.33;;;17.30;99.90;;;;;;6311068;22;20419;-67
2022/09/15 10:29:46;;;;;;;6.77;3.97;;;17.70;99.90;;;;;;6310825;22;20416;-67
2022/09/15 10:32:23;;;;;;;6.33;4.07;;;17.60;99.90;;;;;;6310123;22;20542;-66
2022/09/15 10:34:59;;;;;;;6.80;4.30;;;18.00;99.90;;;;;;6311185;22;20420;-66
2022/09/15 10:37:32;;;;;;;7.90;3.93;;;18.10;99.90;;;;;;6310858;22;20928;-66
2022/09/15 10:40:03;;;;;;;7.70;3.40;;;17.50;99.90;;;;;;6310212;22;20570;-66
2022/09/15 10:42:53;;;;;;;6.07;3.50;;;17.40;99.90;;;;;;6310657;22;20839;-66
2022/09/15 10:45:33;;;;;;;7.37;3.77;;;17.20;99.90;;;;;;6311003;22;20430;-67
2022/09/15 10:48:24;;;;;;;9.37;3.33;;;17.10;99.90;;;;;;6309521;22;20469;-66
2022/09/15 10:50:59;;;;;;;7.77;3.07;;;16.80;99.90;;;;;;6306011;22;20700;-66
2022/09/15 10:53:55;;;;;;;6.93;3.67;;;16.60;99.90;;;;;;6311242;22;20506;-66
2022/09/15 10:56:28;;;;;;;9.63;4.63;;;16.60;99.90;;;;;;6311112;22;20391;-66
2022/09/15 10:59:31;;;;;;;6.50;4.27;;;16.70;99.90;;;;;;6310394;22;20510;-66
2022/09/15 11:02:14;;;;;;;6.83;4.33;;;16.80;99.90;;;;;;6310408;22;20677;-65
2022/09/15 11:04:55;;;;;;;7.43;4.63;;;17.30;99.90;;;;;;6311365;22;20412;-65
2022/09/15 11:07:32;;;;;;;8.80;5.10;;;17.60;99.90;;;;;;6311452;22;20436;-65
2022/09/15 11:10:08;;;;;;;5.93;5.23;;;18.20;99.90;;;;;;6310531;22;20412;-65
2022/09/15 11:12:49;;;;;;;7.40;5.70;;;18.50;99.90;;;;;;6311081;22;20447;-65
2022/09/15 11:15:29;;;;;;;7.30;5.17;;;18.20;99.90;;;;;;6310380;22;20415;-65
2022/09/15 11:18:14;;;;;;;8.43;5.20;;;18.50;99.90;;;;;;6310145;22;20713;-65
2022/09/15 11:21:17;;;;;;;5.30;4.23;;;18.50;99.90;;;;;;6308834;22;20930;-65
2022/09/15 11:23:51;;;;;;;7.53;4.50;;;18.40;99.90;;;;;;6309380;22;20390;-65
2022/09/15 11:26:24;;;;;;;10.97;4.63;;;18.20;99.90;;;;;;6310439;22;20386;-65
2022/09/15 11:28:55;;;;;;;4.20;3.50;;;18.00;99.90;;;;;;6309059;22;20436;-65
2022/09/15 11:31:27;;;;;;;6.83;3.10;;;17.80;99.90;;;;;;6310190;22;20444;-65
2022/09/15 11:34:00;;;;;;;5.77;3.60;;;17.60;99.90;;;;;;6308428;22;20495;-65
2022/09/15 11:36:33;;;;;;;8.00;4.07;;;17.40;99.90;;;;;;6308788;22;20440;-65
2022/09/15 11:39:07;;;;;;;5.63;3.50;;;17.10;99.90;;;;;;6309026;22;20387;-65
2022/09/15 11:41:39;;;;;;;6.13;3.97;;;17.10;99.90;;;;;;6310218;22;20452;-65
2022/09/15 11:44:16;;;;;;;4.33;3.70;;;17.00;99.90;;;;;;6308747;22;20424;-65
2022/09/15 11:47:00;;;;;;;7.20;3.57;;;17.10;99.90;;;;;;6310714;22;20441;-65
2022/09/15 11:49:39;;;;;;;9.50;4.30;;;16.80;99.90;;;;;;6310394;22;20390;-66
2022/09/15 11:52:19;;;;;;;9.30;3.93;;;16.60;99.90;;;;;;6308054;22;20447;-65
2022/09/15 11:54:55;;;;;;;6.37;3.63;;;16.70;99.90;;;;;;6308438;22;20443;-66
2022/09/15 11:57:28;;;;;;;7.43;4.00;;;16.60;99.90;;;;;;6308775;22;20418;-66
2022/09/15 12:00:05;;;;;;;8.17;3.80;;;16.40;99.90;;;;;;6307509;22;20416;-69
2022/09/15 12:02:40;;;;;;;6.23;3.87;;;16.20;99.90;;;;;;6310405;22;20503;-64
2022/09/15 12:05:14;;;;;;;6.30;3.50;;;15.60;1.00;;;;;;6310379;22;20853;-64
2022/09/15 12:07:47;;;;;;;6.17;3.40;;;15.30;1.00;;;;;;6309939;22;20413;-64
2022/09/15 12:10:18;;;;;;;5.13;3.50;;;15.00;2.70;;;;;;6308020;22;20481;-63
2022/09/15 12:12:47;;;;;;;5.00;3.47;;;14.90;99.90;;;;;;6306771;22;20444;-64
2022/09/15 12:15:18;;;;;;;7.27;4.97;;;14.70;1.00;;;;;;6309710;22;20398;-63
2022/09/15 12:17:52;;;;;;;8.53;3.40;;;14.70;1.00;;;;;;6308423;22;20416;-63
2022/09/15 12:20:27;;;;;;;5.90;3.73;;;14.50;1.00;;;;;;6309521;22;20394;-63
2022/09/15 12:23:00;;;;;;;6.13;3.40;;;14.40;16.00;;;;;;6309666;22;20487;-62
2022/09/15 12:25:35;;;;;;;9.73;3.10;;;14.40;18.70;;;;;;6310381;22;20412;-63
2022/09/15 12:28:37;;;;;;;4.10;3.07;;;14.60;1.00;;;;;;6309826;22;20408;-63
2022/09/15 12:31:25;;;;;;;6.00;3.23;;;14.80;1.00;;;;;;6309402;22;20416;-64
2022/09/15 12:34:04;;;;;;;4.67;2.90;;;15.10;99.90;;;;;;6308805;22;20460;-64
2022/09/15 12:36:42;;;;;;;6.73;3.53;;;15.50;1.00;;;;;;6308712;22;20963;-65
2022/09/15 12:39:43;;;;;;;5.53;3.17;;;15.70;99.90;;;;;;6309738;22;20394;-65
2022/09/15 12:42:19;;;;;;;6.20;2.60;;;15.80;1.00;;;;;;6259110;22;20914;-65
2022/09/15 12:44:51;;;;;;;4.60;3.20;;;15.70;1.00;;;;;;6308712;22;20416;-66
2022/09/15 12:47:30;;;;;;;4.43;2.70;;;15.80;1.00;;;;;;6309513;22;20386;-66
2022/09/15 12:50:04;;;;;;;5.53;3.40;;;16.30;90.40;;;;;;6308360;22;20422;-66
2022/09/15 12:52:44;;;;;;;3.87;3.10;;;16.60;1.00;;;;;;6308723;22;20459;-66
2022/09/15 12:55:20;;;;;;;5.33;3.23;;;16.80;1.00;;;;;;6309643;22;20391;-66
2022/09/15 12:57:53;;;;;;;5.43;3.70;;;16.60;1.00;;;;;;6309435;22;20391;-66
2022/09/15 13:00:35;;;;;;;4.53;3.10;;;16.70;1.00;;;;;;6309778;22;20514;-66
2022/09/15 13:03:04;;;;;;;4.47;2.60;;;16.60;1.00;;;;;;6308496;22;20469;-66
2022/09/15 13:06:19;;;;;;;6.93;3.43;;;16.60;1.00;;;;;;6308625;22;20674;-66